Time;durP1;ratioP1;P1;durP2;ratioP2;P2;SDS_P1;SDS_P2;PMS_P1;PMS_P2;Temp;Humidity;BMP_temperature;BMP_pressure;BME280_temperature;BME280_humidity;BME280_pressure;Samples;Min_cycle;Max_cycle;Signal;HPM_P1;HPM_P2
2022/06/30 00:00:00;;;;;;;10.75;8.32;;;;;;;19.99;87.39;101012.06;5052959;28;20102;-56
2022/06/30 00:02:31;;;;;;;11.73;7.88;;;;;;;20.00;87.17;101007.56;5064505;28;20045;-51
2022/06/30 00:04:59;;;;;;;12.93;8.30;;;;;;;19.93;88.29;101010.00;5050029;28;20099;-49
2022/06/30 00:07:29;;;;;;;11.60;8.77;;;;;;;19.94;87.65;101001.03;5051367;28;20415;-50
2022/06/30 00:09:58;;;;;;;12.18;8.77;;;;;;;19.96;87.56;101001.72;5050039;28;20511;-55
2022/06/30 00:12:27;;;;;;;14.15;9.50;;;;;;;19.93;87.73;100994.84;5049202;28;20049;-50
2022/06/30 00:14:55;;;;;;;11.82;9.30;;;;;;;19.92;87.56;100997.69;5051679;28;20048;-51
2022/06/30 00:17:23;;;;;;;12.77;9.25;;;;;;;19.90;87.83;100991.66;5052995;28;20044;-52
2022/06/30 00:19:51;;;;;;;14.07;10.13;;;;;;;19.84;87.55;100992.31;5052748;28;20106;-54
2022/06/30 00:22:19;;;;;;;13.48;10.20;;;;;;;19.86;87.24;100992.97;5052318;28;20057;-53
2022/06/30 00:24:47;;;;;;;13.07;9.68;;;;;;;19.84;87.75;100981.63;5052405;28;20491;-49
2022/06/30 00:27:17;;;;;;;14.05;10.43;;;;;;;19.82;87.55;100983.59;5052459;28;20044;-55
2022/06/30 00:29:45;;;;;;;13.30;10.35;;;;;;;19.74;87.60;100977.19;5052516;28;20099;-53
2022/06/30 00:32:13;;;;;;;13.25;10.70;;;;;;;19.74;88.01;100984.34;5051593;28;20106;-51
2022/06/30 00:34:41;;;;;;;17.33;11.23;;;;;;;19.68;87.36;100976.97;5048806;28;20515;-55
2022/06/30 00:37:09;;;;;;;15.85;11.00;;;;;;;19.71;87.82;100974.81;5049821;28;20114;-53
2022/06/30 00:39:37;;;;;;;17.63;12.27;;;;;;;19.69;87.99;100971.50;5049011;28;20102;-52
2022/06/30 00:42:06;;;;;;;15.02;11.25;;;;;;;19.66;88.06;100971.81;5046107;28;20060;-47
2022/06/30 00:44:36;;;;;;;15.82;11.90;;;;;;;19.68;88.03;100967.13;5052160;28;20203;-54
2022/06/30 00:47:05;;;;;;;15.20;11.52;;;;;;;19.61;88.84;100976.78;5052177;28;20114;-48
2022/06/30 00:49:34;;;;;;;17.48;12.07;;;;;;;19.53;89.12;100974.03;5051731;28;20067;-47
2022/06/30 00:52:03;;;;;;;17.00;12.85;;;;;;;19.52;88.69;100978.53;5051846;28;20592;-46
2022/06/30 00:54:34;;;;;;;20.55;13.90;;;;;;;19.50;89.21;100975.19;5051499;28;20033;-51
2022/06/30 00:57:03;;;;;;;20.95;13.23;;;;;;;19.49;88.85;100967.34;5047556;28;20099;-55
2022/06/30 00:59:34;;;;;;;23.17;13.88;;;;;;;19.48;89.13;100971.81;5048902;28;20095;-49
2022/06/30 01:02:04;;;;;;;19.50;14.73;;;;;;;19.50;89.17;100964.53;5051746;28;20090;-45
2022/06/30 01:04:35;;;;;;;18.20;13.23;;;;;;;19.49;89.32;100962.84;5050665;28;20307;-51
2022/06/30 01:07:05;;;;;;;18.55;14.48;;;;;;;19.45;89.51;100966.81;5051463;28;20051;-54
2022/06/30 01:15:06;;;;;;;16.17;11.82;;;;;;;19.38;89.49;100961.25;5051833;28;20400;-46
2022/06/30 01:17:35;;;;;;;16.00;12.10;;;;;;;19.38;89.87;100960.44;5048352;28;20403;-50
2022/06/30 01:20:04;;;;;;;17.48;12.38;;;;;;;19.38;90.49;100961.25;5049137;28;20068;-54
2022/06/30 01:22:33;;;;;;;14.75;11.73;;;;;;;19.39;90.94;100962.13;5051878;28;20053;-50
2022/06/30 01:25:01;;;;;;;16.58;11.35;;;;;;;19.34;90.04;100959.88;5052086;28;20076;-51
2022/06/30 01:27:30;;;;;;;15.52;11.93;;;;;;;19.34;90.50;100962.56;5051653;28;20051;-54
2022/06/30 01:29:58;;;;;;;15.68;12.15;;;;;;;19.32;90.42;100961.88;5051830;28;20053;-54
2022/06/30 01:32:28;;;;;;;14.75;12.15;;;;;;;19.32;90.80;100963.69;5051664;28;20045;-55
2022/06/30 01:34:57;;;;;;;16.25;12.18;;;;;;;19.24;91.19;100972.50;5050265;28;20045;-53
2022/06/30 01:37:26;;;;;;;14.93;12.02;;;;;;;19.26;91.32;100975.81;5048068;28;20128;-49
2022/06/30 01:39:55;;;;;;;14.30;11.30;;;;;;;19.16;92.24;100978.56;5050547;28;20091;-51
2022/06/30 01:42:23;;;;;;;13.45;11.07;;;;;;;19.11;92.60;100980.03;5051507;28;20044;-47
2022/06/30 01:44:51;;;;;;;14.55;11.73;;;;;;;19.11;93.34;100977.38;5051556;28;20045;-47
2022/06/30 01:47:19;;;;;;;16.05;12.15;;;;;;;19.00;93.63;100979.25;5050204;28;20119;-47
2022/06/30 01:49:47;;;;;;;14.18;10.73;;;;;;;18.91;94.16;100978.34;5051620;28;20056;-50
2022/06/30 01:52:15;;;;;;;13.38;10.75;;;;;;;18.89;95.95;100976.81;5051645;28;20725;-50
2022/06/30 01:54:43;;;;;;;12.18;10.63;;;;;;;19.00;95.75;100978.44;5048294;28;20186;-55
2022/06/30 01:57:13;;;;;;;15.30;11.07;;;;;;;18.88;96.25;100977.81;5046650;28;20067;-53
2022/06/30 01:59:41;;;;;;;15.02;11.98;;;;;;;18.92;96.06;100977.38;5051675;28;20049;-53
2022/06/30 02:02:09;;;;;;;14.60;11.27;;;;;;;18.86;97.04;100982.44;5051734;28;20399;-50
2022/06/30 02:04:50;;;;;;;13.25;11.25;;;;;;;18.81;97.34;100985.53;5049764;28;20098;-53
2022/06/30 02:07:19;;;;;;;13.07;11.23;;;;;;;18.83;97.82;100977.38;5047552;28;20091;-54
2022/06/30 02:09:50;;;;;;;13.35;11.25;;;;;;;18.83;97.91;100977.38;5051731;28;20037;-47
2022/06/30 02:15:09;;;;;;;17.13;11.95;;;;;;;18.67;99.06;100983.41;5047557;28;20088;-48
2022/06/30 02:17:37;;;;;;;20.95;12.23;;;;;;;18.61;99.80;100976.84;5054105;28;20041;-48
2022/06/30 02:20:08;;;;;;;15.13;12.32;;;;;;;18.64;100.00;100978.34;5053978;28;20068;-52
2022/06/30 02:22:36;;;;;;;14.05;11.77;;;;;;;18.61;99.91;100971.53;5053692;28;20099;-55
2022/06/30 02:25:06;;;;;;;14.77;12.95;;;;;;;18.59;99.37;100971.63;5049530;28;20037;-55
2022/06/30 02:27:35;;;;;;;18.00;14.73;;;;;;;18.54;100.00;100973.94;5052538;28;20106;-54
2022/06/30 02:30:06;;;;;;;15.10;13.25;;;;;;;18.54;100.00;100973.06;5054899;28;20051;-53
2022/06/30 02:32:34;;;;;;;18.42;14.77;;;;;;;18.53;100.00;100971.44;5054963;28;20131;-55
2022/06/30 02:35:03;;;;;;;16.58;14.18;;;;;;;18.43;100.00;100971.44;5054868;28;20107;-54
2022/06/30 02:37:31;;;;;;;15.65;12.88;;;;;;;18.43;100.00;100971.44;5054754;28;20492;-50
2022/06/30 02:39:59;;;;;;;16.27;13.85;;;;;;;18.46;100.00;100973.84;5054751;28;20048;-50
2022/06/30 02:42:27;;;;;;;17.05;13.98;;;;;;;18.45;100.00;100973.97;5054579;28;20143;-54
2022/06/30 02:44:56;;;;;;;18.35;14.30;;;;;;;18.38;100.00;100974.56;5051215;28;20471;-51
2022/06/30 02:47:30;;;;;;;18.58;13.38;;;;;;;18.32;100.00;100985.81;5051759;28;20057;-45
2022/06/30 02:49:59;;;;;;;17.17;14.18;;;;;;;18.30;100.00;100978.97;5054626;28;20045;-49
2022/06/30 02:52:27;;;;;;;15.70;13.27;;;;;;;18.36;100.00;100981.03;5052181;28;20111;-52
2022/06/30 02:54:55;;;;;;;16.95;13.30;;;;;;;18.31;100.00;100981.47;5050340;28;20102;-52
2022/06/30 02:57:23;;;;;;;14.80;12.15;;;;;;;18.27;100.00;100977.44;5052975;28;20550;-54
2022/06/30 02:59:51;;;;;;;14.95;12.70;;;;;;;18.28;100.00;100976.44;5051051;28;21112;-50
2022/06/30 03:02:20;;;;;;;16.25;13.43;;;;;;;18.21;100.00;100981.50;5051562;28;20059;-53
2022/06/30 03:04:49;;;;;;;16.83;13.02;;;;;;;18.22;100.00;100977.03;5054334;28;20067;-50
2022/06/30 03:07:18;;;;;;;16.30;12.65;;;;;;;18.17;100.00;100977.44;5054089;28;20064;-54
2022/06/30 03:09:46;;;;;;;16.77;13.73;;;;;;;18.21;100.00;100978.00;5050184;28;20143;-53
2022/06/30 03:12:14;;;;;;;15.45;13.75;;;;;;;18.21;100.00;100980.69;5049632;28;20056;-46
2022/06/30 03:14:42;;;;;;;18.00;14.88;;;;;;;18.17;100.00;100977.44;5054135;28;20041;-48
2022/06/30 03:17:10;;;;;;;19.60;15.63;;;;;;;18.16;100.00;100972.28;5052808;28;20340;-53
2022/06/30 03:19:40;;;;;;;16.85;14.50;;;;;;;18.13;100.00;100981.41;5050183;28;20053;-52
2022/06/30 03:22:08;;;;;;;16.67;14.07;;;;;;;18.13;100.00;100977.91;5052332;28;20404;-53
2022/06/30 03:24:36;;;;;;;16.67;14.45;;;;;;;18.13;100.00;100977.91;5052435;28;20049;-51
2022/06/30 03:27:05;;;;;;;17.08;14.35;;;;;;;18.17;100.00;100977.44;5053012;28;20129;-52
2022/06/30 03:29:33;;;;;;;18.98;15.07;;;;;;;18.02;100.00;100969.09;5052962;28;20447;-54
2022/06/30 03:32:01;;;;;;;17.00;14.90;;;;;;;17.93;100.00;100970.00;5050104;28;20057;-52
2022/06/30 03:34:29;;;;;;;16.77;14.85;;;;;;;17.96;100.00;100967.03;5051889;28;20047;-49
2022/06/30 03:36:58;;;;;;;17.73;14.88;;;;;;;17.98;100.00;100966.91;5053560;28;20053;-53
2022/06/30 03:39:26;;;;;;;15.98;13.80;;;;;;;17.99;100.00;100961.44;5049859;28;20060;-51
2022/06/30 03:41:54;;;;;;;17.38;13.98;;;;;;;17.95;100.00;100953.91;5048438;28;20072;-49
2022/06/30 03:44:22;;;;;;;15.32;13.65;;;;;;;17.95;100.00;100962.69;5053533;28;20080;-54
2022/06/30 03:46:51;;;;;;;17.30;14.50;;;;;;;17.98;100.00;100956.25;5053062;28;20087;-53
2022/06/30 03:49:23;;;;;;;16.00;14.23;;;;;;;17.90;100.00;100957.78;5053293;28;20106;-54
2022/06/30 03:51:51;;;;;;;15.70;13.50;;;;;;;17.97;100.00;100958.09;5053308;28;20049;-54
2022/06/30 03:54:21;;;;;;;17.67;15.00;;;;;;;17.94;100.00;100961.00;5051859;28;20070;-51
2022/06/30 03:56:50;;;;;;;18.23;15.20;;;;;;;17.93;100.00;100962.03;5047879;28;20441;-48
2022/06/30 03:59:18;;;;;;;16.40;14.60;;;;;;;17.89;100.00;100971.25;5050722;28;20501;-52
2022/06/30 04:01:46;;;;;;;17.25;14.63;;;;;;;17.94;100.00;100966.34;5053215;28;20052;-52
2022/06/30 04:04:14;;;;;;;16.75;14.18;;;;;;;17.96;100.00;100958.25;5053067;28;20044;-54
2022/06/30 04:06:42;;;;;;;18.92;15.70;;;;;;;17.94;100.00;100957.53;5053033;28;20128;-53
2022/06/30 04:09:10;;;;;;;19.33;15.07;;;;;;;17.93;100.00;100958.50;5053062;28;20055;-55
2022/06/30 04:11:40;;;;;;;19.95;15.13;;;;;;;17.98;100.00;100949.09;5053247;28;20143;-51
2022/06/30 04:14:08;;;;;;;18.77;15.88;;;;;;;18.01;100.00;100950.63;5052966;28;20045;-52
2022/06/30 04:16:36;;;;;;;21.70;15.85;;;;;;;18.01;100.00;100954.16;5049824;28;20044;-53
2022/06/30 04:19:04;;;;;;;20.92;15.98;;;;;;;17.98;100.00;100953.59;5049338;28;20053;-54
2022/06/30 04:21:32;;;;;;;18.85;16.75;;;;;;;17.97;100.00;100950.09;5052700;28;20083;-47
2022/06/30 04:24:00;;;;;;;20.70;17.08;;;;;;;18.01;100.00;100951.50;5052816;28;20526;-55
2022/06/30 04:26:28;;;;;;;19.75;16.95;;;;;;;18.05;100.00;100952.88;5052708;28;20080;-54
2022/06/30 04:28:58;;;;;;;20.88;17.40;;;;;;;18.01;100.00;100947.97;5052572;28;20045;-48
2022/06/30 04:34:11;;;;;;;25.10;19.13;;;;;;;18.04;100.00;100940.53;5049399;28;20049;-56
2022/06/30 04:36:39;;;;;;;24.50;20.30;;;;;;;18.06;100.00;100945.72;5052195;28;20041;-47
2022/06/30 04:39:07;;;;;;;28.92;21.60;;;;;;;18.05;100.00;100944.88;5052361;28;20041;-53
2022/06/30 04:41:36;;;;;;;27.42;21.85;;;;;;;18.08;100.00;100941.94;5052302;28;20102;-56
2022/06/30 04:44:06;;;;;;;26.88;21.05;;;;;;;18.13;100.00;100938.81;5052185;28;20056;-56
2022/06/30 04:46:34;;;;;;;25.58;20.77;;;;;;;18.16;100.00;100946.53;5052123;28;20496;-52
2022/06/30 04:49:02;;;;;;;24.25;19.65;;;;;;;18.19;100.00;100940.91;5051116;28;20053;-53
2022/06/30 04:51:30;;;;;;;25.05;19.92;;;;;;;18.27;100.00;100945.50;5048362;28;20730;-52
2022/06/30 04:53:59;;;;;;;25.95;20.38;;;;;;;18.30;100.00;100937.22;5050798;28;20439;-54
2022/06/30 04:56:27;;;;;;;26.73;21.20;;;;;;;18.35;100.00;100936.75;5052050;28;20041;-49
2022/06/30 04:58:55;;;;;;;25.85;21.42;;;;;;;18.41;100.00;100939.66;5048667;28;20057;-47
2022/06/30 05:01:25;;;;;;;25.77;20.27;;;;;;;18.49;100.00;100932.78;5050140;28;20426;-49
2022/06/30 05:03:53;;;;;;;25.08;21.60;;;;;;;18.55;100.00;100935.66;5051981;28;20049;-52
2022/06/30 05:06:21;;;;;;;23.65;21.05;;;;;;;18.63;100.00;100940.22;5052020;28;20559;-47
2022/06/30 05:08:49;;;;;;;25.25;21.00;;;;;;;18.71;100.00;100934.97;5049009;28;20099;-54
2022/06/30 05:11:20;;;;;;;25.80;22.30;;;;;;;18.77;100.00;100922.88;5047486;28;20124;-47
2022/06/30 05:13:48;;;;;;;23.95;21.17;;;;;;;18.84;100.00;100925.78;5052009;28;20106;-55
2022/06/30 05:16:16;;;;;;;25.90;20.88;;;;;;;18.91;100.00;100925.06;5051956;28;20057;-54
2022/06/30 05:18:45;;;;;;;25.85;21.73;;;;;;;18.99;100.00;100929.63;5049572;28;20132;-54
2022/06/30 05:21:13;;;;;;;26.33;21.35;;;;;;;19.13;100.00;100930.06;5048400;28;20426;-50
2022/06/30 05:26:28;;;;;;;24.05;21.33;;;;;;;19.15;100.00;100926.25;5051436;28;20114;-53
2022/06/30 05:26:28;;;;;;;25.02;21.13;;;;;;;19.25;100.00;100926.16;5046253;28;20076;-53
2022/06/30 05:28:56;;;;;;;25.05;22.23;;;;;;;19.36;100.00;100923.25;5049969;28;20068;-49
2022/06/30 05:31:24;;;;;;;25.10;21.48;;;;;;;19.41;100.00;100925.44;5048746;28;20060;-53
2022/06/30 05:33:54;;;;;;;26.25;22.20;;;;;;;19.50;100.00;100921.03;5047434;28;20047;-45
2022/06/30 05:36:22;;;;;;;25.48;22.30;;;;;;;19.57;100.00;100928.22;5051311;28;20049;-45
2022/06/30 05:38:50;;;;;;;26.15;22.42;;;;;;;19.67;100.00;100928.09;5051470;28;20496;-54
2022/06/30 05:41:18;;;;;;;25.95;23.25;;;;;;;19.74;100.00;100942.50;5051243;28;20049;-54
2022/06/30 05:43:46;;;;;;;25.15;22.35;;;;;;;19.86;100.00;100940.44;5051390;28;20057;-55
2022/06/30 05:46:14;;;;;;;26.98;24.15;;;;;;;19.95;100.00;100937.78;5050980;28;20045;-55
2022/06/30 05:48:42;;;;;;;26.27;23.17;;;;;;;20.03;100.00;100938.69;5050619;28;20072;-50
2022/06/30 05:51:15;;;;;;;25.77;22.73;;;;;;;20.10;100.00;100942.38;5049254;28;20434;-54
2022/06/30 05:53:43;;;;;;;25.38;22.67;;;;;;;20.19;100.00;100943.28;5052896;28;20506;-53
2022/06/30 05:56:13;;;;;;;25.90;23.17;;;;;;;20.29;100.00;100940.47;5055292;28;20545;-53
2022/06/30 05:58:41;;;;;;;25.77;23.05;;;;;;;20.38;100.00;100947.50;5054771;28;20052;-47
2022/06/30 06:01:09;;;;;;;24.63;21.73;;;;;;;20.51;99.30;100939.03;5055077;28;20049;-50
2022/06/30 06:03:37;;;;;;;25.17;22.13;;;;;;;20.69;98.95;100946.13;5054104;28;20049;-48
2022/06/30 06:06:05;;;;;;;28.08;22.20;;;;;;;20.83;98.59;100939.28;5050788;28;20045;-48
2022/06/30 06:08:34;;;;;;;24.98;21.70;;;;;;;20.99;97.57;100952.66;5052957;28;20565;-49
2022/06/30 06:11:02;;;;;;;25.67;21.05;;;;;;;21.07;96.87;100944.66;5055350;28;20044;-54
2022/06/30 06:13:31;;;;;;;26.67;22.05;;;;;;;21.22;95.02;100933.28;5055129;28;20044;-50
2022/06/30 06:15:59;;;;;;;23.52;21.02;;;;;;;21.33;97.12;100940.16;5055190;28;20103;-56
2022/06/30 06:18:27;;;;;;;23.63;21.13;;;;;;;21.45;95.28;100942.28;5055240;28;20434;-49
2022/06/30 06:20:55;;;;;;;22.23;19.55;;;;;;;21.57;94.29;100948.16;5053744;28;20041;-53
2022/06/30 06:23:45;;;;;;;23.83;19.73;;;;;;;21.72;92.90;100937.59;5054980;28;20102;-56
2022/06/30 06:26:13;;;;;;;23.77;19.38;;;;;;;21.90;92.98;100963.31;5055174;28;20052;-51
2022/06/30 06:31:27;;;;;;;19.77;17.13;;;;;;;22.15;89.53;100950.69;5054849;28;20056;-56
2022/06/30 06:33:55;;;;;;;22.13;16.90;;;;;;;22.34;90.48;100953.94;5054966;28;20469;-56
2022/06/30 06:36:23;;;;;;;19.05;15.50;;;;;;;22.54;90.69;100952.53;5054826;28;20419;-45
2022/06/30 06:38:53;;;;;;;20.85;15.68;;;;;;;22.78;88.77;100956.06;5051405;28;20439;-47
2022/06/30 06:41:21;;;;;;;25.08;18.77;;;;;;;22.83;87.94;100951.00;5051576;28;20562;-47
2022/06/30 06:43:50;;;;;;;22.15;18.90;;;;;;;23.02;87.90;100952.38;5054675;28;20434;-54
2022/06/30 06:46:19;;;;;;;23.75;19.17;;;;;;;23.05;85.12;100952.00;5052314;28;20136;-45
2022/06/30 06:48:47;;;;;;;19.92;17.77;;;;;;;23.19;85.24;100952.28;5051107;28;20056;-50
2022/06/30 06:51:15;;;;;;;19.42;17.08;;;;;;;23.36;84.43;100943.06;5054436;28;20486;-55
2022/06/30 06:53:43;;;;;;;20.23;17.42;;;;;;;23.48;82.95;100945.31;5054539;28;20057;-56
2022/06/30 06:56:13;;;;;;;18.27;14.73;;;;;;;23.71;81.78;100948.78;5051149;28;20053;-55
2022/06/30 06:58:41;;;;;;;18.98;13.88;;;;;;;23.89;81.63;100951.13;5051213;28;20562;-55
2022/06/30 07:01:09;;;;;;;19.20;16.23;;;;;;;23.97;79.11;100947.53;5053340;28;20533;-45
2022/06/30 07:03:37;;;;;;;18.30;15.45;;;;;;;24.08;77.83;100952.41;5052836;28;20106;-55
2022/06/30 07:06:06;;;;;;;20.73;16.00;;;;;;;24.19;77.52;100948.41;5050766;28;20049;-51
2022/06/30 07:08:36;;;;;;;20.75;16.40;;;;;;;24.33;76.73;100960.16;5051419;28;20049;-46
2022/06/30 07:11:05;;;;;;;19.98;15.13;;;;;;;24.50;77.17;100968.00;5054319;28;20120;-47
2022/06/30 07:13:35;;;;;;;18.25;14.60;;;;;;;24.64;75.83;100975.25;5052268;28;20056;-55
2022/06/30 07:16:03;;;;;;;19.58;15.50;;;;;;;24.68;74.63;100973.84;5050150;28;20067;-53
2022/06/30 07:18:32;;;;;;;16.85;13.77;;;;;;;24.88;73.02;100974.06;5053687;28;20086;-46
2022/06/30 07:21:00;;;;;;;16.88;13.02;;;;;;;25.04;75.78;100981.00;5054056;28;20056;-56
2022/06/30 07:23:28;;;;;;;16.23;13.27;;;;;;;25.25;74.03;100982.88;5053954;28;20067;-55
2022/06/30 07:25:58;;;;;;;16.98;13.88;;;;;;;25.36;70.94;100986.09;5050484;28;20045;-49
2022/06/30 07:28:26;;;;;;;14.32;12.05;;;;;;;25.43;67.96;100987.81;5050428;28;20080;-54
2022/06/30 07:31:16;;;;;;;17.92;11.10;;;;;;;25.61;67.56;100994.56;5053963;28;20072;-47
2022/06/30 07:33:44;;;;;;;15.88;10.93;;;;;;;25.62;65.68;100996.25;5052681;28;20052;-56
2022/06/30 07:36:13;;;;;;;16.08;11.02;;;;;;;25.87;66.26;101003.88;5053811;28;20072;-48
2022/06/30 07:38:42;;;;;;;13.90;10.15;;;;;;;26.09;66.83;101005.47;5049691;28;20045;-51
2022/06/30 07:41:10;;;;;;;16.88;11.90;;;;;;;26.21;63.96;100997.66;5048867;28;20541;-55
2022/06/30 07:43:39;;;;;;;14.25;11.65;;;;;;;26.38;63.02;100997.31;5052878;28;20434;-55
2022/06/30 07:46:08;;;;;;;18.17;13.40;;;;;;;26.51;62.28;101004.63;5049997;28;20562;-54
2022/06/30 07:48:38;;;;;;;18.65;14.88;;;;;;;26.49;62.45;101000.28;5051162;28;20526;-48
2022/06/30 07:51:07;;;;;;;16.83;14.60;;;;;;;26.61;60.89;101002.38;5052202;28;20053;-55
2022/06/30 07:53:35;;;;;;;17.50;14.43;;;;;;;26.70;61.61;101008.44;5053450;28;20055;-49
2022/06/30 07:56:03;;;;;;;16.70;14.57;;;;;;;26.71;62.54;101010.97;5053457;28;20076;-55
2022/06/30 07:58:33;;;;;;;20.70;14.57;;;;;;;26.98;61.52;101016.41;5053491;28;20083;-50
2022/06/30 08:01:01;;;;;;;20.90;16.02;;;;;;;27.03;60.85;101013.94;5053449;28;20049;-51
2022/06/30 08:03:30;;;;;;;19.92;15.57;;;;;;;27.24;60.25;101028.28;5052915;28;20077;-55
2022/06/30 08:06:00;;;;;;;24.27;16.45;;;;;;;26.95;61.60;101027.59;5053038;28;20045;-56
2022/06/30 08:08:29;;;;;;;19.55;17.13;;;;;;;27.04;61.17;101023.69;5052998;28;20103;-54
2022/06/30 08:10:57;;;;;;;18.42;15.80;;;;;;;27.08;62.57;101035.75;5052822;28;20045;-52
2022/06/30 08:13:31;;;;;;;21.15;18.42;;;;;;;27.20;62.69;101041.38;5050648;28;20416;-46
2022/06/30 08:15:59;;;;;;;22.23;17.65;;;;;;;27.19;61.94;101041.56;5049845;28;20561;-49
2022/06/30 08:18:27;;;;;;;19.33;17.17;;;;;;;27.33;61.94;101043.25;5052289;28;20110;-54
2022/06/30 08:20:56;;;;;;;22.23;17.15;;;;;;;27.20;62.80;101035.97;5052955;28;20438;-54
2022/06/30 08:23:25;;;;;;;20.52;16.20;;;;;;;27.26;60.98;101035.13;5053195;28;20179;-49
2022/06/30 08:25:53;;;;;;;19.98;17.90;;;;;;;27.23;61.39;101040.09;5049694;28;20122;-52
2022/06/30 08:28:22;;;;;;;19.55;15.25;;;;;;;27.52;61.65;101036.22;5049356;28;20056;-54
2022/06/30 08:30:50;;;;;;;20.25;18.15;;;;;;;27.51;61.44;101037.25;5051865;28;20063;-53
2022/06/30 08:33:18;;;;;;;20.77;18.63;;;;;;;27.37;62.49;101035.59;5052533;28;20040;-54
2022/06/30 08:35:46;;;;;;;23.70;18.15;;;;;;;27.53;63.83;101047.84;5052520;28;20102;-55
2022/06/30 08:38:31;;;;;;;21.73;18.77;;;;;;;27.75;63.99;101043.91;5052825;28;20496;-50
2022/06/30 08:43:45;;;;;;;18.58;16.63;;;;;;;28.25;61.07;101050.69;5052855;28;20379;-53
2022/06/30 08:46:14;;;;;;;18.23;16.17;;;;;;;28.26;59.33;101046.94;5051835;28;20400;-55
2022/06/30 08:48:42;;;;;;;18.98;15.23;;;;;;;28.44;56.07;101038.13;5048794;28;20053;-50
2022/06/30 08:51:14;;;;;;;17.25;12.45;;;;;;;28.53;55.16;101039.56;5050294;28;20047;-49
2022/06/30 08:53:48;;;;;;;16.00;12.30;;;;;;;28.29;54.91;101033.00;5052511;28;20049;-47
2022/06/30 08:56:16;;;;;;;16.88;10.18;;;;;;;28.73;55.37;101039.50;5051867;28;20055;-50
2022/06/30 08:58:45;;;;;;;15.73;11.23;;;;;;;28.63;52.97;101033.69;5049697;28;20041;-49
2022/06/30 09:01:13;;;;;;;13.95;12.45;;;;;;;28.78;53.94;101037.00;5050055;28;20048;-50
2022/06/30 09:03:42;;;;;;;13.55;11.15;;;;;;;29.03;54.08;101035.38;5052225;28;20066;-47
2022/06/30 09:06:10;;;;;;;13.55;9.88;;;;;;;29.06;51.67;101035.78;5052386;28;20078;-55
2022/06/30 09:08:55;;;;;;;14.80;10.10;;;;;;;29.14;51.12;101024.69;5052254;28;20454;-50
2022/06/30 09:11:44;;;;;;;13.98;9.45;;;;;;;29.07;51.16;101017.63;5052312;28;20060;-52
2022/06/30 09:14:31;;;;;;;15.25;9.25;;;;;;;29.24;51.71;101017.94;5052167;28;20091;-49
2022/06/30 09:17:00;;;;;;;10.80;7.38;;;;;;;29.17;50.02;101024.22;5052034;28;20049;-46
2022/06/30 09:19:29;;;;;;;10.43;6.22;;;;;;;29.23;49.13;101017.09;5051493;28;20072;-49
2022/06/30 09:22:05;;;;;;;10.57;6.00;;;;;;;29.43;50.74;101019.69;5048010;28;20484;-54
2022/06/30 09:24:35;;;;;;;11.38;5.90;;;;;;;29.64;48.95;101018.47;5050279;28;20495;-56
2022/06/30 09:27:19;;;;;;;10.70;5.70;;;;;;;29.90;47.72;101026.59;5055547;28;20049;-55
2022/06/30 09:29:52;;;;;;;10.48;5.53;;;;;;;29.89;45.16;101024.91;5055972;28;20040;-51
2022/06/30 09:32:49;;;;;;;11.02;4.63;;;;;;;29.67;46.44;101017.22;5056063;28;20048;-52
2022/06/30 09:35:18;;;;;;;8.38;4.07;;;;;;;29.89;46.97;101025.75;5056086;28;20574;-55
2022/06/30 09:37:46;;;;;;;9.23;3.88;;;;;;;30.13;47.11;101025.91;5055912;28;20049;-54
2022/06/30 09:40:28;;;;;;;10.23;4.50;;;;;;;30.04;46.88;101027.25;5055983;28;20041;-50
2022/06/30 09:42:56;;;;;;;9.55;4.40;;;;;;;30.24;46.33;101030.59;5054409;28;20041;-51
2022/06/30 09:45:38;;;;;;;7.43;3.47;;;;;;;30.57;46.99;101032.09;5052580;28;20519;-52
2022/06/30 09:48:07;;;;;;;8.67;3.77;;;;;;;30.61;47.28;101025.16;5054557;28;20045;-54
2022/06/30 09:50:36;;;;;;;9.20;4.45;;;;;;;30.59;46.89;101035.41;5055762;28;20094;-53
2022/06/30 09:53:12;;;;;;;11.13;4.53;;;;;;;30.72;47.61;101022.72;5055797;28;20557;-50
2022/06/30 09:55:44;;;;;;;10.38;4.22;;;;;;;30.64;48.07;101032.03;5055683;28;20484;-49
2022/06/30 09:58:14;;;;;;;8.50;3.63;;;;;;;30.30;46.81;101032.41;5055756;28;20091;-48
2022/06/30 10:00:47;;;;;;;6.82;2.65;;;;;;;30.47;43.84;101031.81;5055409;28;20049;-47
2022/06/30 10:03:17;;;;;;;7.78;2.90;;;;;;;30.38;43.95;101036.69;5054828;28;20405;-51
2022/06/30 10:05:47;;;;;;;9.13;2.97;;;;;;;30.62;44.53;101025.97;5052096;28;20561;-55
2022/06/30 10:08:17;;;;;;;7.38;2.67;;;;;;;30.78;45.97;101029.94;5052978;28;20047;-55
2022/06/30 10:10:47;;;;;;;7.28;2.72;;;;;;;31.01;43.04;101038.16;5053993;28;20057;-55
2022/06/30 10:13:17;;;;;;;7.32;2.67;;;;;;;30.79;44.12;101029.72;5055348;28;20495;-53
2022/06/30 10:15:48;;;;;;;6.78;2.50;;;;;;;31.05;45.60;101029.59;5051687;28;20049;-54
2022/06/30 10:18:17;;;;;;;7.38;2.60;;;;;;;31.29;44.55;101028.59;5052810;28;20045;-55
2022/06/30 10:20:47;;;;;;;7.72;2.53;;;;;;;31.32;44.20;101033.53;5055169;28;20052;-51
2022/06/30 10:23:16;;;;;;;8.48;2.42;;;;;;;31.24;43.02;101030.34;5052422;28;20044;-55
2022/06/30 10:25:45;;;;;;;7.88;2.50;;;;;;;31.64;42.85;101030.50;5049734;28;20049;-53
2022/06/30 10:28:16;;;;;;;5.53;2.22;;;;;;;31.72;41.41;101032.06;5054656;28;20052;-55
2022/06/30 10:30:51;;;;;;;7.55;2.05;;;;;;;31.92;43.38;101028.13;5054807;28;20041;-53
2022/06/30 10:33:24;;;;;;;6.78;2.33;;;;;;;31.97;42.14;101028.25;5055335;28;20095;-53
2022/06/30 10:36:01;;;;;;;8.65;2.88;;;;;;;32.01;41.48;101029.44;5054819;28;20055;-54
2022/06/30 10:38:35;;;;;;;8.82;2.45;;;;;;;31.78;42.76;101036.56;5054681;28;20045;-52
2022/06/30 10:41:10;;;;;;;5.28;2.25;;;;;;;32.17;41.85;101023.28;5054682;28;20045;-54
2022/06/30 10:44:22;;;;;;;8.27;2.55;;;;;;;32.06;41.66;101026.00;5052954;28;20063;-55
2022/06/30 10:47:18;;;;;;;7.40;2.78;;;;;;;32.06;41.50;101029.53;5051367;28;20063;-55
2022/06/30 10:49:58;;;;;;;9.32;3.88;;;;;;;31.65;42.96;101021.31;5030555;28;20060;-49
2022/06/30 10:52:29;;;;;;;7.47;2.70;;;;;;;31.94;44.00;101015.13;5054543;28;20041;-50
2022/06/30 10:55:02;;;;;;;9.43;3.53;;;;;;;32.00;42.10;101017.72;5054517;28;20053;-47
2022/06/30 10:58:04;;;;;;;9.63;2.97;;;;;;;32.33;42.00;101015.44;5052602;28;20061;-51
2022/06/30 11:01:11;;;;;;;6.67;3.50;;;;;;;32.62;42.60;101019.00;5050852;28;20095;-47
2022/06/30 11:04:05;;;;;;;10.48;3.50;;;;;;;32.59;42.39;101018.66;4996002;28;20571;-46
2022/06/30 11:07:01;;;;;;;7.00;2.45;;;;;;;32.76;41.44;101022.25;4995833;28;20062;-49
2022/06/30 11:10:05;;;;;;;9.40;3.45;;;;;;;32.52;41.76;101022.34;5048549;28;20380;-53
2022/06/30 11:13:04;;;;;;;8.98;3.50;;;;;;;32.67;43.29;101019.09;5054257;28;20376;-51
2022/06/30 11:15:52;;;;;;;8.05;3.10;;;;;;;32.98;41.89;101011.50;5051485;28;20060;-49
2022/06/30 11:18:23;;;;;;;6.97;3.50;;;;;;;32.92;41.05;101006.22;5050955;28;20072;-54
2022/06/30 11:20:52;;;;;;;8.05;3.53;;;;;;;32.81;41.87;101005.22;5053996;28;20052;-48
2022/06/30 11:23:21;;;;;;;8.73;4.20;;;;;;;33.09;40.96;101011.66;5053886;28;20529;-50
2022/06/30 11:28:52;;;;;;;8.30;3.70;;;;;;;33.22;39.57;101005.09;5028174;28;20104;-54
2022/06/30 11:31:29;;;;;;;6.60;2.90;;;;;;;33.39;39.91;101005.09;5031405;28;20060;-54
2022/06/30 11:34:02;;;;;;;7.03;2.35;;;;;;;33.60;41.46;101006.25;5043211;28;20088;-55
2022/06/30 11:36:31;;;;;;;7.18;3.40;;;;;;;33.45;39.94;100999.47;5050517;28;20134;-55
2022/06/30 11:39:01;;;;;;;7.50;2.60;;;;;;;33.82;41.28;101007.13;5049295;28;20048;-50
2022/06/30 11:44:18;;;;;;;8.15;3.08;;;;;;;33.33;38.96;101005.00;5053954;28;20091;-49
2022/06/30 11:46:58;;;;;;;6.72;2.75;;;;;;;33.85;39.14;100998.41;5050870;28;20519;-47